Hovedside
METAR-TAF:

METAR-TAF

Lufthavner :

Salem Municipal Airport (McNary Field)

Salem, Oregon, USA

breddegrad: 44-54-28N, lengdegrad: 122-59-42W, høyde over havet: 64 m

Gjeldene værobservasjon

Denne rapporten ble laget for 51 minutter siden, klokken 03:56 UTC
Flau vind
Temperatur 9°C
Luftfuktighet 87%
Trykk 1014 hPa
Sikt: 16.1 km
Skyfri himmel

METAR: KSLE 220356Z AUTO 00000KT 10SM CLR 09/07 A2995 RMK AO2 SLP142 T00890067

Tid: 21:47 (04:47 UTC)

Varsel

Denne rapporten ble laget for 5 timer og 8 minutter siden, klokken 23:39 UTC
Varsel gyldig fra 22. klokken 00 UTC til 22. klokken 24 UTC
Vind 6 kt fra Nord
Sikt: 10 km
Skyfri himmel
Fra 22. klokken 0900 UTC
Vind kt fra Nord
Sikt: 4.8 km
Skyfri himmel
dis
Fra 22. klokken 1100 UTC
Vind kt fra Nord
Sikt: 0.8 km
Brutte skyer i en høyde av 200 ft
tåke

TAF: KSLE 212339Z 2200/2224 35006KT P6SM SKC FM220900 00000KT 3SM BR SKC FM221100 00000KT 1/2SM FG BKN002

Værobservasjoner og værvarsel for over 4000 flyplasser (METAR- og TAF-rapporter).

Tilgjengelige stasjoner er representert av de røde og gule prikkene på kartet.

Hold musepekeren over prikken for å se navnet på stasjonen.

Klikk så for å se værobservasjoner og -varsler.

For å forandre kartet kan du klikke på den grønne knappen med svart kryss for å zoome inn, på den grønne knappen med strek for å zoome ut, eller på de grønne pilene for å se tilstøtende kart.


METAR-TAF: